Time;durP1;ratioP1;P1;durP2;ratioP2;P2;SDS_P1;SDS_P2;PMS_P1;PMS_P2;Temp;Humidity;BMP_temperature;BMP_pressure;BME280_temperature;BME280_humidity;BME280_pressure;Samples;Min_cycle;Max_cycle;Signal;HPM_P1;HPM_P2
2023/06/09 00:00:00;;;;;;;19.60;16.80;;;14.60;99.90;;;;;;4991939;28;20511;-67
2023/06/09 00:02:33;;;;;;;20.33;17.98;;;14.60;99.90;;;;;;5007828;28;20034;-67
2023/06/09 00:05:01;;;;;;;17.70;15.80;;;14.50;99.90;;;;;;5009764;28;20081;-67
2023/06/09 00:07:29;;;;;;;22.77;18.58;;;14.50;99.90;;;;;;5005382;28;20548;-67
2023/06/09 00:09:58;;;;;;;18.95;16.52;;;14.50;99.90;;;;;;4999378;28;20049;-67
2023/06/09 00:12:25;;;;;;;18.30;15.10;;;14.50;99.90;;;;;;5010179;28;20072;-67
2023/06/09 00:14:53;;;;;;;17.40;15.57;;;14.50;99.90;;;;;;5008403;28;20053;-67
2023/06/09 00:17:24;;;;;;;16.45;14.20;;;14.50;99.90;;;;;;4996748;28;20050;-67
2023/06/09 00:19:53;;;;;;;15.68;13.98;;;14.40;99.90;;;;;;4986725;28;20494;-67
2023/06/09 00:22:21;;;;;;;17.15;15.13;;;14.40;99.90;;;;;;5002158;28;20084;-67
2023/06/09 00:24:49;;;;;;;16.13;14.43;;;14.40;99.90;;;;;;5000464;28;20054;-67
2023/06/09 00:27:17;;;;;;;18.10;14.20;;;14.40;99.90;;;;;;4995128;28;20042;-68
2023/06/09 00:29:44;;;;;;;17.88;14.43;;;14.30;99.90;;;;;;5000042;28;20041;-68
2023/06/09 00:32:11;;;;;;;21.02;15.48;;;14.30;99.90;;;;;;5024966;28;20042;-69
2023/06/09 00:34:40;;;;;;;17.38;14.55;;;14.30;99.90;;;;;;4995685;28;20482;-68
2023/06/09 00:37:08;;;;;;;14.15;12.60;;;14.30;99.90;;;;;;5024158;28;20045;-68
2023/06/09 00:39:36;;;;;;;15.73;12.18;;;14.30;99.90;;;;;;4970559;28;20073;-68
2023/06/09 00:42:05;;;;;;;15.68;12.90;;;14.30;99.90;;;;;;4999904;28;20049;-66
2023/06/09 00:44:34;;;;;;;14.50;11.70;;;14.30;99.90;;;;;;5019133;28;20041;-67
2023/06/09 00:47:04;;;;;;;15.02;11.82;;;14.40;99.90;;;;;;5005617;28;20037;-68
2023/06/09 00:49:32;;;;;;;13.75;11.13;;;14.40;99.90;;;;;;5013223;28;20530;-67
2023/06/09 00:52:00;;;;;;;12.32;10.50;;;14.40;99.90;;;;;;5012965;28;20038;-66
2023/06/09 00:54:28;;;;;;;11.60;10.40;;;14.40;99.90;;;;;;5003581;28;20037;-66
2023/06/09 00:56:56;;;;;;;11.65;9.07;;;14.40;99.90;;;;;;4972766;28;20065;-68
2023/06/09 00:59:25;;;;;;;13.00;9.73;;;14.40;99.90;;;;;;5012072;28;20038;-68
2023/06/09 01:01:53;;;;;;;11.40;9.43;;;14.40;99.90;;;;;;4996744;28;20112;-67
2023/06/09 01:04:20;;;;;;;12.40;10.25;;;14.40;99.90;;;;;;4965765;28;20046;-66
2023/06/09 01:06:56;;;;;;;10.82;9.30;;;14.40;99.90;;;;;;5001896;28;20104;-68
2023/06/09 01:09:31;;;;;;;12.63;9.73;;;14.40;99.90;;;;;;5012639;28;20049;-68
2023/06/09 01:12:31;;;;;;;12.27;9.57;;;14.40;99.90;;;;;;4977438;28;20057;-68
2023/06/09 01:15:27;;;;;;;13.00;9.70;;;14.30;99.90;;;;;;4988592;28;20422;-68
2023/06/09 01:18:02;;;;;;;15.07;9.90;;;14.30;99.90;;;;;;4988652;28;20046;-68
2023/06/09 01:20:32;;;;;;;10.98;9.23;;;14.30;99.90;;;;;;4978661;28;20050;-66
2023/06/09 01:23:08;;;;;;;13.73;10.35;;;14.30;99.90;;;;;;5005297;28;20053;-67
2023/06/09 01:25:39;;;;;;;14.60;9.80;;;14.30;99.90;;;;;;5013640;28;20455;-67
2023/06/09 01:28:11;;;;;;;13.80;9.88;;;14.30;99.90;;;;;;5019108;28;20049;-67
2023/06/09 01:30:41;;;;;;;11.88;10.45;;;14.30;99.90;;;;;;4994771;28;20472;-67
2023/06/09 01:33:18;;;;;;;13.13;9.65;;;14.40;99.90;;;;;;5000915;28;20050;-67
2023/06/09 01:35:46;;;;;;;11.35;9.30;;;14.40;99.90;;;;;;4994458;28;20073;-67
2023/06/09 01:38:18;;;;;;;15.07;10.93;;;14.40;99.90;;;;;;5012906;28;20049;-68
2023/06/09 01:40:46;;;;;;;12.85;10.60;;;14.40;99.90;;;;;;5011771;28;20366;-66
2023/06/09 01:43:15;;;;;;;13.43;9.48;;;14.40;99.90;;;;;;4981037;28;20049;-67
2023/06/09 01:45:42;;;;;;;13.30;10.18;;;14.40;99.90;;;;;;4993700;28;20052;-67
2023/06/09 01:48:37;;;;;;;14.13;9.75;;;14.40;99.90;;;;;;5001949;28;20121;-67
2023/06/09 01:51:36;;;;;;;10.80;9.70;;;14.40;99.90;;;;;;4994702;28;20045;-67
2023/06/09 01:54:12;;;;;;;13.98;10.68;;;14.40;99.90;;;;;;4877013;29;20047;-67
2023/06/09 01:56:46;;;;;;;14.88;10.52;;;14.40;99.90;;;;;;4919215;29;20142;-67
2023/06/09 01:59:22;;;;;;;13.43;9.75;;;14.50;99.90;;;;;;4881163;29;20091;-67
2023/06/09 02:01:51;;;;;;;11.73;10.13;;;14.40;99.90;;;;;;4892040;29;20058;-66
2023/06/09 02:04:23;;;;;;;12.50;10.35;;;14.40;99.90;;;;;;4904698;29;20575;-67
2023/06/09 02:06:53;;;;;;;15.95;10.10;;;14.40;99.90;;;;;;4900967;29;20106;-67
2023/06/09 02:09:21;;;;;;;13.50;10.02;;;14.40;99.90;;;;;;4920376;29;20182;-66
2023/06/09 02:11:52;;;;;;;12.77;11.10;;;14.40;99.90;;;;;;4916512;29;20056;-66
2023/06/09 02:14:20;;;;;;;15.50;11.10;;;14.40;99.90;;;;;;4905415;29;20052;-66
2023/06/09 02:16:48;;;;;;;15.73;10.02;;;14.40;99.90;;;;;;4882854;29;20649;-66
2023/06/09 02:19:16;;;;;;;12.20;10.90;;;14.30;99.90;;;;;;4898885;29;20056;-66
2023/06/09 02:21:44;;;;;;;13.10;11.23;;;14.40;99.90;;;;;;4892338;29;20524;-67
2023/06/09 02:24:11;;;;;;;13.48;11.10;;;14.30;99.90;;;;;;4901760;29;20480;-67
2023/06/09 02:26:39;;;;;;;12.48;10.65;;;14.30;99.90;;;;;;4913834;29;20079;-67
2023/06/09 02:29:06;;;;;;;11.05;9.93;;;14.30;99.90;;;;;;4896259;29;20048;-67
2023/06/09 02:31:34;;;;;;;12.90;10.98;;;14.20;99.90;;;;;;4963018;28;20050;-67
2023/06/09 02:34:01;;;;;;;12.05;10.15;;;14.20;99.90;;;;;;4997933;28;20038;-67
2023/06/09 02:36:29;;;;;;;14.75;12.18;;;14.20;99.90;;;;;;4993633;28;20440;-66
2023/06/09 02:38:57;;;;;;;14.00;11.88;;;14.30;99.90;;;;;;4978253;28;20072;-66
2023/06/09 02:41:26;;;;;;;16.63;12.05;;;14.20;99.90;;;;;;4993567;28;20432;-67
2023/06/09 02:43:54;;;;;;;12.90;11.50;;;14.20;99.90;;;;;;4995087;28;20409;-67
2023/06/09 02:46:25;;;;;;;14.20;11.73;;;14.20;99.90;;;;;;4985567;28;20130;-67
2023/06/09 02:48:52;;;;;;;15.07;11.23;;;14.30;99.90;;;;;;5000859;28;20080;-67
2023/06/09 02:51:20;;;;;;;15.07;11.75;;;14.30;99.90;;;;;;4996799;28;20419;-67
2023/06/09 02:53:48;;;;;;;12.40;10.98;;;14.40;99.90;;;;;;5010604;28;20053;-66
2023/06/09 02:56:17;;;;;;;17.60;12.05;;;14.30;99.90;;;;;;5002822;28;20042;-68
2023/06/09 02:58:50;;;;;;;14.43;11.75;;;14.30;99.90;;;;;;4978448;28;20049;-67
2023/06/09 03:01:19;;;;;;;13.85;12.07;;;14.30;99.90;;;;;;5004510;28;20058;-67
2023/06/09 03:03:48;;;;;;;13.85;11.40;;;14.30;99.90;;;;;;4994488;28;20056;-67
2023/06/09 03:06:17;;;;;;;15.52;13.77;;;14.30;99.90;;;;;;4982109;28;20132;-66
2023/06/09 03:08:45;;;;;;;14.85;12.10;;;14.30;99.90;;;;;;4991872;28;20043;-66
2023/06/09 03:11:13;;;;;;;15.18;12.00;;;14.30;99.90;;;;;;4984211;28;20049;-67
2023/06/09 03:13:41;;;;;;;13.02;11.63;;;14.20;99.90;;;;;;4992004;28;20533;-66
2023/06/09 03:16:08;;;;;;;14.40;11.98;;;14.20;99.90;;;;;;5006154;28;20038;-66
2023/06/09 03:18:36;;;;;;;14.23;12.73;;;14.20;99.90;;;;;;4976526;28;20054;-66
2023/06/09 03:21:04;;;;;;;17.63;13.82;;;14.20;99.90;;;;;;5003941;28;20112;-66
2023/06/09 03:23:37;;;;;;;14.35;12.80;;;14.10;99.90;;;;;;4980952;28;20446;-66
2023/06/09 03:26:05;;;;;;;15.02;12.77;;;14.10;99.90;;;;;;5011460;28;20187;-66
2023/06/09 03:28:33;;;;;;;15.70;13.73;;;14.00;99.90;;;;;;4997988;28;22206;-67
2023/06/09 03:31:01;;;;;;;17.40;14.60;;;14.10;99.90;;;;;;4996771;28;20041;-67
2023/06/09 03:33:29;;;;;;;18.70;16.05;;;14.10;99.90;;;;;;5002752;28;20065;-67
2023/06/09 03:35:58;;;;;;;18.23;15.25;;;14.10;99.90;;;;;;5000505;28;20034;-67
2023/06/09 03:38:29;;;;;;;17.90;14.50;;;14.10;99.90;;;;;;4986820;28;20255;-67
2023/06/09 03:40:56;;;;;;;17.77;13.77;;;14.10;99.90;;;;;;5000614;28;20049;-69
2023/06/09 03:43:26;;;;;;;17.38;13.60;;;14.10;99.90;;;;;;4997560;28;20117;-67
2023/06/09 03:45:53;;;;;;;17.20;14.40;;;14.10;99.90;;;;;;4971088;28;20068;-67
2023/06/09 03:48:21;;;;;;;17.75;14.25;;;14.20;99.90;;;;;;5003429;28;20417;-67
2023/06/09 03:50:50;;;;;;;16.00;13.60;;;14.20;99.90;;;;;;4977160;28;20065;-66
2023/06/09 03:53:19;;;;;;;16.00;14.30;;;14.20;99.90;;;;;;4976841;28;20046;-66
2023/06/09 03:55:46;;;;;;;15.95;14.25;;;14.20;99.90;;;;;;5008632;28;20191;-67
2023/06/09 03:58:14;;;;;;;16.27;13.80;;;14.20;99.90;;;;;;4999164;28;20096;-68
2023/06/09 04:00:43;;;;;;;17.30;14.23;;;14.20;99.90;;;;;;4997849;28;20073;-67
2023/06/09 04:03:11;;;;;;;18.60;14.35;;;14.20;99.90;;;;;;4999123;28;20046;-68
2023/06/09 04:05:39;;;;;;;18.98;15.02;;;14.20;99.90;;;;;;4996488;28;20042;-67
2023/06/09 04:08:08;;;;;;;16.80;13.75;;;14.20;99.90;;;;;;4996984;28;20041;-66
2023/06/09 04:10:35;;;;;;;17.45;15.55;;;14.10;99.90;;;;;;5009162;28;20080;-66
2023/06/09 04:13:03;;;;;;;16.67;14.93;;;14.20;99.90;;;;;;4994874;28;20462;-66
2023/06/09 04:15:31;;;;;;;17.00;13.93;;;14.20;99.90;;;;;;4974974;28;20147;-67
2023/06/09 04:17:59;;;;;;;16.35;13.88;;;14.20;99.90;;;;;;4995214;28;20049;-67
2023/06/09 04:20:31;;;;;;;15.85;12.43;;;14.20;99.90;;;;;;4997212;28;20049;-68
2023/06/09 04:22:59;;;;;;;23.85;16.50;;;14.30;99.90;;;;;;5018775;28;20132;-67
2023/06/09 04:25:34;;;;;;;17.70;15.60;;;14.30;99.90;;;;;;4999988;28;20068;-68
2023/06/09 04:28:09;;;;;;;16.85;14.02;;;14.30;99.90;;;;;;4997724;28;20120;-67
2023/06/09 04:30:38;;;;;;;16.25;13.65;;;14.30;99.90;;;;;;5001003;28;20046;-67
2023/06/09 04:33:09;;;;;;;16.77;14.35;;;14.40;99.90;;;;;;4997386;28;20045;-67
2023/06/09 04:35:40;;;;;;;17.85;13.93;;;14.40;99.90;;;;;;4985807;28;20077;-67
2023/06/09 04:38:11;;;;;;;14.77;12.63;;;14.40;99.90;;;;;;4991891;28;20510;-68
2023/06/09 04:40:39;;;;;;;17.08;14.13;;;14.50;99.90;;;;;;4991805;28;20050;-68
2023/06/09 04:43:09;;;;;;;15.30;13.68;;;14.50;99.90;;;;;;4997675;28;20417;-68
2023/06/09 04:45:39;;;;;;;16.83;15.13;;;14.50;99.90;;;;;;4989960;28;20494;-68
2023/06/09 04:48:12;;;;;;;18.00;14.85;;;14.50;99.90;;;;;;4991602;28;20478;-68
2023/06/09 04:50:44;;;;;;;16.30;14.50;;;14.60;99.90;;;;;;4990706;28;20050;-68
2023/06/09 04:53:15;;;;;;;17.98;15.38;;;14.70;99.90;;;;;;4970783;28;20046;-68
2023/06/09 04:55:52;;;;;;;16.52;14.73;;;14.70;99.90;;;;;;4990803;28;20053;-68
2023/06/09 04:58:20;;;;;;;18.83;16.83;;;14.70;99.90;;;;;;4992212;28;20058;-68
2023/06/09 05:00:48;;;;;;;23.45;16.75;;;14.80;99.90;;;;;;4998893;28;20129;-68
2023/06/09 05:03:17;;;;;;;19.73;15.55;;;14.80;99.90;;;;;;5002282;28;20045;-67
2023/06/09 05:05:48;;;;;;;20.75;17.52;;;14.90;99.90;;;;;;4984630;28;20136;-67
2023/06/09 05:08:16;;;;;;;17.67;15.77;;;14.90;99.90;;;;;;4983708;28;20038;-67
2023/06/09 05:10:45;;;;;;;17.65;14.90;;;15.00;99.90;;;;;;4991688;28;20453;-67
2023/06/09 05:13:14;;;;;;;19.08;17.13;;;15.10;99.90;;;;;;4973643;28;20104;-67
2023/06/09 05:15:41;;;;;;;20.60;17.08;;;15.10;99.90;;;;;;4999767;28;20046;-67
2023/06/09 05:18:11;;;;;;;19.45;15.60;;;15.10;99.90;;;;;;4991496;28;20041;-67
2023/06/09 05:20:39;;;;;;;20.85;16.15;;;15.20;99.90;;;;;;4991612;28;20057;-67
2023/06/09 05:23:08;;;;;;;18.92;16.92;;;15.20;99.90;;;;;;5001925;28;20048;-67
2023/06/09 05:25:37;;;;;;;19.58;15.93;;;15.30;99.90;;;;;;4970780;28;20486;-67
2023/06/09 05:28:05;;;;;;;22.92;17.35;;;15.30;99.90;;;;;;4999007;28;20520;-67
2023/06/09 05:30:33;;;;;;;24.75;19.17;;;15.40;99.90;;;;;;5007094;28;20046;-67
2023/06/09 05:33:01;;;;;;;27.48;20.63;;;15.50;99.90;;;;;;5005756;28;20037;-68
2023/06/09 05:35:29;;;;;;;26.00;19.42;;;15.60;99.90;;;;;;5006249;28;20061;-67
2023/06/09 05:37:57;;;;;;;26.90;19.27;;;15.70;99.90;;;;;;5002849;28;20044;-67
2023/06/09 05:40:26;;;;;;;28.90;19.92;;;15.80;99.90;;;;;;4983016;28;20068;-67
2023/06/09 05:42:54;;;;;;;22.02;18.23;;;15.80;99.90;;;;;;4993127;28;20046;-66
2023/06/09 05:45:21;;;;;;;19.98;17.08;;;15.90;99.90;;;;;;5007482;28;20506;-66
2023/06/09 05:47:50;;;;;;;22.15;17.98;;;15.90;99.90;;;;;;4977941;28;20060;-68
2023/06/09 05:50:18;;;;;;;20.73;17.33;;;16.00;99.90;;;;;;4995424;28;20038;-67
2023/06/09 05:52:45;;;;;;;18.02;15.52;;;16.00;99.90;;;;;;5001848;28;20129;-67
2023/06/09 05:55:13;;;;;;;19.35;15.52;;;16.00;99.90;;;;;;4996234;28;20497;-68
2023/06/09 05:57:41;;;;;;;18.10;15.45;;;16.10;99.90;;;;;;5020295;28;20321;-67
2023/06/09 06:00:10;;;;;;;16.63;14.55;;;16.10;99.90;;;;;;4981500;28;20045;-67
2023/06/09 06:02:42;;;;;;;21.80;13.98;;;16.20;99.90;;;;;;5010892;28;20049;-66
2023/06/09 06:05:10;;;;;;;16.63;15.02;;;16.30;99.90;;;;;;5001722;28;20369;-68
2023/06/09 06:07:38;;;;;;;15.85;14.20;;;16.30;99.90;;;;;;5008210;28;20136;-68
2023/06/09 06:10:07;;;;;;;17.33;14.48;;;16.50;99.90;;;;;;4994100;28;20042;-68
2023/06/09 06:12:35;;;;;;;17.40;14.90;;;16.60;99.90;;;;;;4993100;28;20054;-68
2023/06/09 06:15:03;;;;;;;16.45;14.75;;;16.70;99.90;;;;;;4988863;28;20078;-68
2023/06/09 06:17:31;;;;;;;15.93;13.30;;;16.80;99.90;;;;;;5006109;28;20537;-68
2023/06/09 06:19:59;;;;;;;13.10;11.73;;;17.00;99.90;;;;;;5007427;28;20052;-68
2023/06/09 06:22:26;;;;;;;17.80;13.88;;;17.10;99.90;;;;;;4998119;28;20397;-68
2023/06/09 06:24:54;;;;;;;14.32;11.90;;;17.20;99.90;;;;;;5004197;28;20042;-68
2023/06/09 06:27:22;;;;;;;15.25;12.93;;;17.40;99.90;;;;;;5014298;28;20088;-68
2023/06/09 06:29:49;;;;;;;14.30;12.73;;;17.50;99.90;;;;;;4994625;28;20422;-68
2023/06/09 06:32:17;;;;;;;13.10;11.75;;;17.60;99.90;;;;;;5014195;28;20044;-68
2023/06/09 06:34:44;;;;;;;14.45;11.18;;;17.80;99.90;;;;;;5002616;28;20054;-68
2023/06/09 06:37:12;;;;;;;13.52;11.48;;;17.90;99.90;;;;;;4994491;28;20137;-68
2023/06/09 06:39:39;;;;;;;12.73;10.10;;;17.90;99.90;;;;;;4993055;28;20046;-68
2023/06/09 06:42:07;;;;;;;11.15;10.05;;;18.10;99.90;;;;;;4977558;28;20049;-68
2023/06/09 06:44:52;;;;;;;13.05;9.35;;;18.20;99.90;;;;;;4995339;28;20041;-68
2023/06/09 06:47:23;;;;;;;11.18;9.98;;;18.40;99.90;;;;;;5011345;28;20373;-68
2023/06/09 06:49:50;;;;;;;13.63;9.35;;;18.50;99.90;;;;;;5011198;28;20062;-68
2023/06/09 06:52:17;;;;;;;13.50;8.50;;;18.60;99.90;;;;;;5017629;28;20039;-69
2023/06/09 06:54:46;;;;;;;10.05;8.48;;;18.70;99.90;;;;;;5010228;28;20224;-68
2023/06/09 06:57:14;;;;;;;10.02;8.48;;;18.70;99.90;;;;;;5011423;28;20053;-68
2023/06/09 06:59:41;;;;;;;7.68;6.82;;;18.80;99.90;;;;;;5009927;28;20096;-68
2023/06/09 07:02:09;;;;;;;9.20;8.23;;;18.90;99.90;;;;;;4996622;28;20066;-68
2023/06/09 07:04:38;;;;;;;11.88;8.57;;;19.00;99.90;;;;;;5007663;28;20045;-68
2023/06/09 07:07:06;;;;;;;9.07;8.02;;;19.10;99.90;;;;;;5007712;28;20095;-68
2023/06/09 07:09:34;;;;;;;8.90;8.00;;;19.10;99.90;;;;;;5012592;28;20080;-68
2023/06/09 07:12:02;;;;;;;8.60;7.60;;;19.00;99.90;;;;;;5019341;28;20121;-68
2023/06/09 07:14:30;;;;;;;9.75;7.85;;;19.10;99.90;;;;;;5009298;28;20038;-68
2023/06/09 07:16:58;;;;;;;10.40;8.07;;;19.20;99.90;;;;;;5002870;28;20105;-68
2023/06/09 07:19:25;;;;;;;9.27;7.70;;;19.30;99.90;;;;;;4990206;28;20604;-68
2023/06/09 07:21:53;;;;;;;13.30;11.75;;;19.30;99.90;;;;;;5009520;28;20068;-68
2023/06/09 07:24:21;;;;;;;10.50;8.40;;;19.40;99.90;;;;;;5010186;28;20657;-68
2023/06/09 07:26:48;;;;;;;10.73;8.95;;;19.40;99.90;;;;;;5011296;28;20180;-68
2023/06/09 07:29:18;;;;;;;10.50;8.25;;;19.50;99.90;;;;;;4996441;28;20046;-67
2023/06/09 07:31:45;;;;;;;12.38;8.45;;;19.70;99.90;;;;;;5013429;28;20046;-67
2023/06/09 07:34:14;;;;;;;9.52;7.72;;;19.80;99.90;;;;;;5004284;28;20125;-67
2023/06/09 07:36:41;;;;;;;11.52;8.10;;;19.90;99.90;;;;;;5009908;28;20045;-67
2023/06/09 07:39:09;;;;;;;9.23;7.93;;;20.00;99.90;;;;;;5011304;28;20456;-67
2023/06/09 07:41:36;;;;;;;11.35;7.90;;;20.10;99.90;;;;;;4995161;28;20138;-67
2023/06/09 07:44:04;;;;;;;8.52;6.95;;;20.20;99.90;;;;;;5001879;28;20141;-67
2023/06/09 07:46:34;;;;;;;9.05;8.15;;;20.20;99.90;;;;;;4984881;28;20045;-68
2023/06/09 07:49:01;;;;;;;8.60;7.70;;;20.20;99.90;;;;;;5014915;28;20040;-68
2023/06/09 07:51:29;;;;;;;9.18;8.07;;;20.20;99.90;;;;;;5012591;28;20045;-67
2023/06/09 07:53:57;;;;;;;9.02;7.32;;;20.30;99.90;;;;;;5015960;28;20461;-67
2023/06/09 07:56:24;;;;;;;10.80;7.72;;;20.40;99.90;;;;;;4980766;28;20141;-67
2023/06/09 07:58:52;;;;;;;9.65;7.70;;;20.60;99.90;;;;;;5009152;28;20401;-67
2023/06/09 08:01:20;;;;;;;9.77;7.93;;;20.60;99.90;;;;;;5000534;28;20408;-67
2023/06/09 08:03:47;;;;;;;9.82;7.82;;;20.60;99.90;;;;;;5009033;28;20072;-67
2023/06/09 08:06:15;;;;;;;7.78;6.80;;;20.70;99.90;;;;;;5011128;28;20049;-67
2023/06/09 08:08:43;;;;;;;11.20;7.63;;;20.90;99.90;;;;;;5010275;28;20095;-67
2023/06/09 08:11:11;;;;;;;8.57;7.55;;;21.00;99.90;;;;;;4998428;28;20100;-67
2023/06/09 08:13:38;;;;;;;8.90;8.07;;;21.20;99.90;;;;;;5010320;28;20093;-67
2023/06/09 08:16:06;;;;;;;9.60;7.47;;;21.20;99.90;;;;;;4979859;28;20096;-67
2023/06/09 08:18:33;;;;;;;10.02;8.05;;;21.20;99.90;;;;;;4992272;28;20143;-66
2023/06/09 08:21:01;;;;;;;8.93;7.32;;;21.30;99.90;;;;;;5003677;28;20041;-67
2023/06/09 08:23:29;;;;;;;8.93;8.00;;;21.40;99.90;;;;;;5020499;28;20493;-66
2023/06/09 08:25:58;;;;;;;10.05;7.45;;;21.60;99.90;;;;;;5009849;28;20116;-68
2023/06/09 08:28:25;;;;;;;12.13;7.47;;;21.70;99.90;;;;;;5008821;28;20201;-67
2023/06/09 08:30:53;;;;;;;8.77;7.45;;;21.90;99.90;;;;;;4978731;28;20042;-67
2023/06/09 08:33:22;;;;;;;8.90;8.00;;;22.00;99.90;;;;;;5008960;28;20045;-67
2023/06/09 08:35:50;;;;;;;9.15;7.97;;;22.00;99.90;;;;;;4991453;28;20050;-67
2023/06/09 08:38:17;;;;;;;8.25;7.45;;;22.20;99.90;;;;;;4995408;28;20137;-68
2023/06/09 08:40:49;;;;;;;9.93;7.45;;;22.20;99.90;;;;;;5009715;28;20458;-67
2023/06/09 08:43:16;;;;;;;8.50;7.60;;;22.30;99.90;;;;;;4971344;28;20042;-68
2023/06/09 08:45:47;;;;;;;12.32;7.60;;;22.40;99.90;;;;;;4976700;28;20536;-68
2023/06/09 08:48:18;;;;;;;9.75;7.22;;;22.50;99.90;;;;;;4997770;28;20088;-68
2023/06/09 08:50:46;;;;;;;7.70;6.90;;;22.60;99.90;;;;;;4992351;28;20033;-69
2023/06/09 08:53:14;;;;;;;8.55;7.75;;;22.70;99.90;;;;;;5004449;28;20100;-68
2023/06/09 08:55:43;;;;;;;9.10;7.70;;;22.80;99.90;;;;;;4991180;28;20263;-69
2023/06/09 08:58:13;;;;;;;7.97;7.22;;;22.80;99.90;;;;;;4999822;28;20058;-68
2023/06/09 09:00:41;;;;;;;7.38;6.68;;;22.70;99.90;;;;;;4992985;28;20145;-67
2023/06/09 09:03:11;;;;;;;8.57;7.25;;;22.60;99.90;;;;;;4999473;28;20068;-67
2023/06/09 09:05:41;;;;;;;10.35;7.35;;;22.60;99.90;;;;;;4984319;28;20363;-68
2023/06/09 09:08:24;;;;;;;8.90;6.78;;;22.60;99.90;;;;;;5019216;28;20049;-67
2023/06/09 09:10:52;;;;;;;7.90;6.70;;;22.70;99.90;;;;;;5003686;28;20061;-67
2023/06/09 09:13:24;;;;;;;8.40;7.60;;;22.80;99.90;;;;;;5012687;28;20053;-67
2023/06/09 09:15:55;;;;;;;9.93;7.72;;;22.90;99.90;;;;;;5014374;28;20042;-68
2023/06/09 09:18:23;;;;;;;9.25;8.35;;;23.10;99.90;;;;;;5011421;28;20128;-67
2023/06/09 09:20:50;;;;;;;9.82;8.38;;;23.30;99.90;;;;;;5004809;28;20046;-67
2023/06/09 09:23:27;;;;;;;9.48;7.80;;;23.40;99.90;;;;;;5016296;28;20125;-67
2023/06/09 09:26:03;;;;;;;9.43;8.52;;;23.40;99.90;;;;;;5009148;28;20070;-67
2023/06/09 09:28:40;;;;;;;10.98;7.93;;;23.60;99.90;;;;;;5016159;28;20053;-66
2023/06/09 09:31:09;;;;;;;10.23;9.23;;;23.60;99.90;;;;;;5021246;28;20482;-67
2023/06/09 09:33:45;;;;;;;9.13;8.30;;;23.80;99.90;;;;;;5010637;28;20037;-68
2023/06/09 09:36:13;;;;;;;9.02;8.18;;;24.00;99.90;;;;;;5004102;28;20052;-67
2023/06/09 09:38:43;;;;;;;9.07;7.90;;;24.10;99.90;;;;;;4995322;28;20064;-67
2023/06/09 09:41:14;;;;;;;9.40;8.50;;;24.20;99.90;;;;;;4994547;28;20061;-69
2023/06/09 09:43:46;;;;;;;8.75;7.85;;;24.20;99.90;;;;;;4979305;28;20065;-68
2023/06/09 09:46:19;;;;;;;10.95;8.43;;;24.20;99.90;;;;;;5013471;28;20241;-66
2023/06/09 09:48:47;;;;;;;11.35;8.07;;;24.30;99.90;;;;;;5012281;28;20044;-67
2023/06/09 09:51:15;;;;;;;9.10;8.20;;;24.40;99.90;;;;;;5012416;28;20124;-67
2023/06/09 09:53:46;;;;;;;8.77;7.90;;;24.40;99.90;;;;;;4993089;28;20501;-68
2023/06/09 09:56:16;;;;;;;11.30;7.63;;;24.60;99.90;;;;;;5005485;28;20060;-67
2023/06/09 09:58:45;;;;;;;9.13;7.85;;;24.80;99.90;;;;;;5002405;28;20081;-67
2023/06/09 10:01:14;;;;;;;8.40;7.60;;;25.00;99.90;;;;;;5017232;28;20042;-68
2023/06/09 10:03:44;;;;;;;8.55;7.60;;;25.20;99.90;;;;;;5021924;28;20327;-68
2023/06/09 10:06:18;;;;;;;9.90;8.10;;;25.30;99.90;;;;;;5001791;28;20497;-69
2023/06/09 10:08:46;;;;;;;9.43;7.97;;;25.40;99.90;;;;;;5025471;28;20034;-68
2023/06/09 10:11:14;;;;;;;9.20;8.30;;;25.10;99.90;;;;;;5006543;28;20057;-67
2023/06/09 10:13:43;;;;;;;10.77;8.40;;;24.80;99.90;;;;;;4997770;28;20046;-67
2023/06/09 10:16:12;;;;;;;9.75;8.32;;;24.60;99.90;;;;;;5001450;28;20050;-67
2023/06/09 10:18:41;;;;;;;10.35;8.30;;;24.40;99.90;;;;;;5012756;28;20130;-68
2023/06/09 10:21:10;;;;;;;10.10;8.32;;;24.40;99.90;;;;;;5026096;28;20465;-69
2023/06/09 10:23:40;;;;;;;11.02;8.30;;;24.40;99.90;;;;;;4994155;28;20050;-69
2023/06/09 10:26:09;;;;;;;10.75;8.05;;;24.60;99.90;;;;;;5005111;28;20041;-69
2023/06/09 10:28:37;;;;;;;9.85;8.43;;;24.90;99.90;;;;;;4989625;28;20053;-69
2023/06/09 10:31:11;;;;;;;8.23;7.53;;;25.20;99.90;;;;;;5002826;28;20512;-69
2023/06/09 10:33:44;;;;;;;8.80;7.80;;;25.70;99.90;;;;;;5023745;28;20045;-69
2023/06/09 10:36:12;;;;;;;8.93;8.02;;;26.10;99.90;;;;;;5001471;28;20045;-69
2023/06/09 10:38:45;;;;;;;9.30;8.40;;;26.30;99.90;;;;;;5002324;28;20045;-69
2023/06/09 10:41:33;;;;;;;9.30;8.50;;;26.30;99.90;;;;;;5002638;28;20045;-69
2023/06/09 10:44:28;;;;;;;9.40;8.30;;;26.40;99.90;;;;;;5012845;28;20541;-69
2023/06/09 10:46:55;;;;;;;9.85;8.60;;;26.50;99.90;;;;;;4996759;28;20038;-69
2023/06/09 10:49:26;;;;;;;8.93;8.05;;;26.50;99.90;;;;;;5018562;28;20042;-69
2023/06/09 10:51:54;;;;;;;9.30;8.37;;;26.50;99.90;;;;;;5001433;28;20124;-69
2023/06/09 10:54:26;;;;;;;9.57;8.23;;;26.40;99.90;;;;;;4980747;28;20042;-69
2023/06/09 10:57:03;;;;;;;11.27;9.00;;;26.20;99.90;;;;;;5018767;28;20532;-69
2023/06/09 10:59:31;;;;;;;9.93;8.98;;;26.20;99.90;;;;;;5010014;28;20413;-69
2023/06/09 11:02:04;;;;;;;9.95;8.95;;;26.00;99.90;;;;;;4997581;28;20264;-69
2023/06/09 11:04:41;;;;;;;9.73;8.73;;;26.00;99.90;;;;;;5004207;28;20045;-69
2023/06/09 11:07:09;;;;;;;10.20;9.05;;;25.70;99.90;;;;;;5001927;28;20038;-69
2023/06/09 11:09:37;;;;;;;9.77;8.75;;;25.90;99.90;;;;;;5014960;28;20064;-69
2023/06/09 11:12:05;;;;;;;9.73;8.73;;;26.10;99.90;;;;;;5026010;28;20038;-69
2023/06/09 11:14:45;;;;;;;9.90;8.90;;;26.60;99.90;;;;;;5010261;28;20042;-69
2023/06/09 11:17:17;;;;;;;11.63;8.75;;;27.20;99.90;;;;;;5022168;28;20300;-69
2023/06/09 11:19:44;;;;;;;11.05;9.18;;;27.50;99.90;;;;;;4977230;28;20049;-68
2023/06/09 11:22:12;;;;;;;10.75;8.63;;;28.10;99.90;;;;;;5016481;28;20119;-68
2023/06/09 11:24:49;;;;;;;10.13;8.43;;;28.00;99.90;;;;;;5019100;28;20056;-68
2023/06/09 11:27:21;;;;;;;10.23;8.75;;;28.30;99.90;;;;;;4990564;28;20049;-67
2023/06/09 11:30:11;;;;;;;9.65;8.70;;;28.30;99.90;;;;;;5014892;28;20161;-69
2023/06/09 11:32:49;;;;;;;9.75;8.85;;;28.50;99.90;;;;;;5013998;28;20053;-70
2023/06/09 11:35:29;;;;;;;9.50;8.55;;;28.60;99.90;;;;;;4993590;28;20049;-69
2023/06/09 11:38:05;;;;;;;11.07;8.85;;;28.60;99.90;;;;;;4998873;28;20037;-68
2023/06/09 11:40:34;;;;;;;9.25;8.23;;;28.90;99.90;;;;;;4976602;28;20136;-68
2023/06/09 11:43:07;;;;;;;9.13;8.13;;;29.20;99.90;;;;;;4992599;28;20038;-68
2023/06/09 11:45:35;;;;;;;9.75;8.75;;;29.30;99.90;;;;;;4996132;28;20502;-68
2023/06/09 11:48:05;;;;;;;10.45;9.55;;;29.30;99.90;;;;;;4998422;28;20121;-68
2023/06/09 11:50:44;;;;;;;10.02;9.20;;;29.70;99.90;;;;;;5010325;28;20068;-69
2023/06/09 11:53:17;;;;;;;10.27;9.32;;;30.00;99.50;;;;;;4998544;28;20069;-69
2023/06/09 11:55:45;;;;;;;10.10;9.10;;;30.30;97.00;;;;;;4975704;28;20130;-69
2023/06/09 11:58:16;;;;;;;8.60;7.78;;;30.20;96.00;;;;;;5000517;28;20038;-69
2023/06/09 12:00:45;;;;;;;;;;;29.40;93.10;;;;;;5011082;28;20510;-69
2023/06/09 12:03:16;;;;;;;8.57;7.88;;;29.00;93.10;;;;;;5016459;28;19982;-69
2023/06/09 12:05:51;;;;;;;9.23;8.40;;;28.50;93.80;;;;;;5020081;28;20132;-70
2023/06/09 12:08:19;;;;;;;9.60;8.40;;;27.60;93.60;;;;;;5009739;28;20038;-70
2023/06/09 12:10:46;;;;;;;8.80;7.90;;;27.10;95.40;;;;;;5012507;28;20073;-70
2023/06/09 12:13:14;;;;;;;10.13;8.60;;;26.80;95.50;;;;;;5012118;28;20264;-70
2023/06/09 12:15:45;;;;;;;10.23;8.82;;;26.60;96.30;;;;;;4993145;28;20054;-70
2023/06/09 12:18:13;;;;;;;10.33;8.70;;;26.50;97.70;;;;;;5011307;28;20038;-70
2023/06/09 12:20:42;;;;;;;10.65;8.00;;;26.50;97.10;;;;;;5019196;28;20300;-70
2023/06/09 12:23:13;;;;;;;11.10;7.55;;;26.40;98.10;;;;;;4998462;28;20050;-70
2023/06/09 12:25:46;;;;;;;8.77;7.95;;;26.20;97.70;;;;;;4979150;28;20116;-69
2023/06/09 12:28:22;;;;;;;8.25;7.45;;;26.00;99.80;;;;;;4976359;28;20056;-70
2023/06/09 12:31:06;;;;;;;9.43;7.63;;;25.80;99.90;;;;;;4977525;28;20427;-70
2023/06/09 12:33:36;;;;;;;9.02;8.18;;;26.10;99.90;;;;;;5012704;28;20050;-70
2023/06/09 12:36:07;;;;;;;8.80;8.02;;;26.40;99.90;;;;;;4985209;28;20045;-70
2023/06/09 12:38:45;;;;;;;8.27;7.50;;;26.20;98.60;;;;;;4991841;28;20046;-69
2023/06/09 12:41:19;;;;;;;10.55;8.00;;;25.70;99.70;;;;;;5009712;28;20038;-70
2023/06/09 12:43:55;;;;;;;9.35;8.05;;;25.40;99.90;;;;;;5010142;28;20053;-69
2023/06/09 12:46:28;;;;;;;8.57;7.88;;;25.30;99.90;;;;;;5021390;28;20045;-69
2023/06/09 12:48:56;;;;;;;9.55;8.13;;;24.90;99.90;;;;;;4983586;28;20038;-70